createdAt,value
2023-02-11T00:00:50.877Z,82.35
2023-02-11T00:01:50.523Z,82.39
2023-02-11T00:02:50.505Z,82.29
2023-02-11T00:03:50.513Z,82.04
2023-02-11T00:04:50.480Z,82.25
2023-02-11T00:05:50.824Z,82.25
2023-02-11T00:06:50.443Z,82.15
2023-02-11T00:07:50.431Z,82.25
2023-02-11T00:08:50.435Z,82.04
2023-02-11T00:09:50.402Z,82.25
2023-02-11T00:10:50.727Z,82.25
2023-02-11T00:11:50.375Z,82.04
2023-02-11T00:12:50.366Z,82.50
2023-02-11T00:13:50.360Z,82.18
2023-02-11T00:14:50.348Z,82.60
2023-02-11T00:15:50.615Z,82.60
2023-02-11T00:16:50.358Z,82.46
2023-02-11T00:17:50.305Z,82.04
2023-02-11T00:18:50.320Z,82.46
2023-02-11T00:19:50.282Z,82.56
2023-02-11T00:20:50.261Z,82.35
2023-02-11T00:21:50.256Z,82.67
2023-02-11T00:22:50.238Z,82.46
2023-02-11T00:23:50.222Z,82.67
2023-02-11T00:24:50.210Z,82.56
2023-02-11T00:25:50.483Z,82.25
2023-02-11T00:26:50.195Z,82.25
2023-02-11T00:27:50.170Z,82.35
2023-02-11T00:28:50.171Z,82.15
2023-02-11T00:29:50.147Z,82.15
2023-02-11T00:30:50.186Z,82.46
2023-02-11T00:31:50.284Z,82.56
2023-02-11T00:32:50.104Z,82.35
2023-02-11T00:33:50.123Z,82.15
2023-02-11T00:34:50.081Z,82.15
2023-02-11T00:35:50.332Z,82.25
2023-02-11T00:36:50.053Z,82.35
2023-02-11T00:37:50.043Z,82.35
2023-02-11T00:38:50.074Z,82.15
2023-02-11T00:39:50.016Z,82.25
2023-02-11T00:40:49.999Z,82.56
2023-02-11T00:41:49.989Z,82.53
2023-02-11T00:42:49.983Z,82.67
2023-02-11T00:43:49.966Z,82.53
2023-02-11T00:44:49.948Z,82.53
2023-02-11T00:45:50.364Z,82.56
2023-02-11T00:46:49.923Z,82.67
2023-02-11T00:47:49.913Z,82.25
2023-02-11T00:48:49.897Z,82.21
2023-02-11T00:49:49.892Z,82.21
2023-02-11T00:50:49.878Z,82.77
2023-02-11T00:51:49.864Z,82.53
2023-02-11T00:52:49.847Z,82.11
2023-02-11T00:53:49.842Z,83.29
2023-02-11T00:54:49.821Z,83.36
2023-02-11T00:55:50.094Z,82.67
2023-02-11T00:56:49.798Z,82.73
2023-02-11T00:57:49.784Z,82.63
2023-02-11T00:58:49.771Z,83.25
2023-02-11T00:59:49.756Z,83.04
2023-02-11T01:00:49.747Z,83.15
2023-02-11T01:01:49.790Z,83.04
2023-02-11T01:02:49.724Z,83.25
2023-02-11T01:03:49.714Z,82.94
2023-02-11T01:04:49.746Z,83.25
2023-02-11T01:05:49.999Z,83.46
2023-02-11T01:06:49.670Z,82.94
2023-02-11T01:07:49.659Z,82.53
2023-02-11T01:08:49.646Z,82.80
2023-02-11T01:09:49.636Z,82.94
2023-02-11T01:10:49.625Z,82.70
2023-02-11T01:11:49.611Z,83.11
2023-02-11T01:12:49.596Z,82.70
2023-02-11T01:13:49.593Z,82.49
2023-02-11T01:14:49.616Z,82.59
2023-02-11T01:15:50.128Z,82.70
2023-02-11T01:16:49.550Z,83.42
2023-02-11T01:17:49.543Z,82.80
2023-02-11T01:18:49.522Z,83.01
2023-02-11T01:19:49.519Z,83.53
2023-02-11T01:20:49.499Z,83.42
2023-02-11T01:21:49.486Z,83.42
2023-02-11T01:22:49.475Z,83.53
2023-02-11T01:23:49.474Z,83.63
2023-02-11T01:24:49.456Z,83.53
2023-02-11T01:25:49.896Z,83.73
2023-02-11T01:26:49.426Z,84.25
2023-02-11T01:27:49.408Z,83.84
2023-02-11T01:28:49.408Z,83.63
2023-02-11T01:29:49.391Z,83.63
2023-02-11T01:30:49.388Z,83.63
2023-02-11T01:31:49.391Z,83.63
2023-02-11T01:32:49.348Z,83.63
2023-02-11T01:33:49.337Z,83.73
2023-02-11T01:34:49.323Z,83.42
2023-02-11T01:35:49.759Z,83.38
2023-02-11T01:36:49.298Z,83.94
2023-02-11T01:37:49.307Z,83.59
2023-02-11T01:38:49.276Z,83.63
2023-02-11T01:39:49.277Z,83.22
2023-02-11T01:40:49.256Z,83.11
2023-02-11T01:41:49.233Z,83.01
2023-02-11T01:42:51.040Z,82.86
2023-02-11T01:43:49.218Z,82.86
2023-02-11T01:44:49.199Z,83.42
2023-02-11T01:45:49.605Z,83.32
2023-02-11T01:46:49.307Z,83.07
2023-02-11T01:47:49.154Z,82.97
2023-02-11T01:48:49.179Z,83.38
2023-02-11T01:49:49.140Z,82.86
2023-02-11T01:50:49.123Z,83.69
2023-02-11T01:51:49.107Z,83.07
2023-02-11T01:52:49.097Z,83.48
2023-02-11T01:53:49.089Z,83.07
2023-02-11T01:54:49.082Z,83.17
2023-02-11T01:55:49.372Z,82.86
2023-02-11T01:56:49.060Z,82.86
2023-02-11T01:57:49.037Z,83.48
2023-02-11T01:58:49.035Z,83.38
2023-02-11T01:59:49.937Z,83.48
2023-02-11T02:00:48.996Z,83.59
2023-02-11T02:01:49.038Z,83.90
2023-02-11T02:02:49.069Z,83.38
2023-02-11T02:03:49.031Z,83.38
2023-02-11T02:04:48.952Z,83.69
2023-02-11T02:05:49.164Z,83.90
2023-02-11T02:06:48.929Z,83.17
2023-02-11T02:07:48.958Z,83.28
2023-02-11T02:08:48.904Z,83.80
2023-02-11T02:09:48.889Z,83.59
2023-02-11T02:10:48.887Z,83.80
2023-02-11T02:11:48.856Z,83.90
2023-02-11T02:12:48.845Z,83.38
2023-02-11T02:13:48.832Z,83.38
2023-02-11T02:14:48.827Z,83.48
2023-02-11T02:15:49.381Z,83.59
2023-02-11T02:16:48.796Z,83.69
2023-02-11T02:17:48.778Z,83.59
2023-02-11T02:18:48.807Z,83.38
2023-02-11T02:19:48.760Z,83.80
2023-02-11T02:20:48.758Z,83.38
2023-02-11T02:21:48.733Z,83.69
2023-02-11T02:22:48.723Z,83.59
2023-02-11T02:23:48.708Z,84.11
2023-02-11T02:24:48.702Z,83.59
2023-02-11T02:25:49.042Z,83.59
2023-02-11T02:26:48.679Z,83.55
2023-02-11T02:27:48.656Z,84.00
2023-02-11T02:28:48.650Z,84.21
2023-02-11T02:29:48.632Z,84.42
2023-02-11T02:30:48.674Z,84.21
2023-02-11T02:31:48.657Z,83.59
2023-02-11T02:32:48.597Z,83.59
2023-02-11T02:33:55.748Z,84.52
2023-02-11T02:35:52.566Z,83.80
2023-02-11T02:36:52.525Z,84.42
2023-02-11T02:38:56.494Z,84.21
2023-02-11T02:39:56.470Z,84.11
2023-02-11T02:42:00.450Z,84.00
2023-02-11T02:43:00.420Z,84.31
2023-02-11T02:45:04.390Z,84.63
2023-02-11T02:46:04.384Z,84.42
2023-02-11T02:48:08.357Z,84.42
2023-02-11T02:49:08.314Z,84.73
2023-02-11T02:51:12.286Z,84.59
2023-02-11T02:52:12.271Z,84.73
2023-02-11T02:54:05.194Z,84.48
2023-02-11T02:55:05.170Z,84.21
2023-02-11T02:56:58.061Z,84.73
2023-02-11T02:57:58.049Z,84.73
2023-02-11T03:00:02.016Z,85.14
2023-02-11T03:01:02.043Z,85.25
2023-02-11T03:03:05.959Z,85.11
2023-02-11T03:04:05.975Z,85.21
2023-02-11T03:06:09.899Z,85.04
2023-02-11T03:07:09.887Z,85.11
2023-02-11T03:09:14.341Z,85.25
2023-02-11T03:10:14.316Z,85.21
2023-02-11T03:11:14.309Z,84.83
2023-02-11T03:12:14.289Z,84.73
2023-02-11T03:13:14.277Z,85.14
2023-02-11T03:14:14.269Z,85.46
2023-02-11T03:15:14.253Z,85.04
2023-02-11T03:16:14.297Z,85.46
2023-02-11T03:17:14.231Z,84.83
2023-02-11T03:18:14.218Z,85.56
2023-02-11T03:19:14.208Z,85.46
2023-02-11T03:20:14.189Z,85.52
2023-02-11T03:21:14.178Z,85.46
2023-02-11T03:22:14.169Z,85.31
2023-02-11T03:23:14.153Z,85.25
2023-02-11T03:24:14.147Z,85.87
2023-02-11T03:25:14.136Z,85.35
2023-02-11T03:26:14.117Z,85.42
2023-02-11T03:27:14.106Z,85.31
2023-02-11T03:28:14.182Z,85.11
2023-02-11T03:29:14.077Z,85.52
2023-02-11T03:30:14.068Z,85.52
2023-02-11T03:31:14.285Z,85.73
2023-02-11T03:32:14.101Z,85.73
2023-02-11T03:33:14.031Z,85.83
2023-02-11T03:34:14.029Z,85.63
2023-02-11T03:35:14.011Z,85.94
2023-02-11T03:36:13.996Z,85.83
2023-02-11T03:37:13.982Z,85.63
2023-02-11T03:38:13.969Z,85.83
2023-02-11T03:39:13.990Z,85.94
2023-02-11T03:40:13.946Z,85.94
2023-02-11T03:41:13.935Z,86.04
2023-02-11T03:42:13.923Z,85.73
2023-02-11T03:43:13.910Z,86.04
2023-02-11T03:44:13.960Z,85.94
2023-02-11T03:45:13.882Z,85.94
2023-02-11T03:46:13.889Z,86.04
2023-02-11T03:47:13.858Z,85.94
2023-02-11T03:48:13.849Z,85.94
2023-02-11T03:49:13.835Z,86.04
2023-02-11T03:50:13.822Z,85.94
2023-02-11T03:51:13.808Z,86.15
2023-02-11T03:52:13.801Z,85.94
2023-02-11T03:53:13.797Z,85.83
2023-02-11T03:54:13.838Z,85.83
2023-02-11T03:55:13.763Z,86.35
2023-02-11T03:56:13.756Z,86.35
2023-02-11T03:57:13.739Z,86.35
2023-02-11T03:58:13.726Z,86.35
2023-02-11T03:59:13.731Z,86.55
2023-02-11T04:00:13.704Z,86.66
2023-02-11T04:01:13.711Z,86.25
2023-02-11T04:02:13.678Z,86.66
2023-02-11T04:03:13.745Z,86.45
2023-02-11T04:04:13.653Z,86.25
2023-02-11T04:05:13.642Z,86.35
2023-02-11T04:06:13.626Z,86.35
2023-02-11T04:07:13.615Z,86.15
2023-02-11T04:08:13.604Z,86.87
2023-02-11T04:09:14.225Z,87.38
2023-02-11T04:10:13.582Z,86.55
2023-02-11T04:11:13.563Z,87.28
2023-02-11T04:12:13.556Z,87.07
2023-02-11T04:13:13.550Z,87.07
2023-02-11T04:14:13.528Z,87.18
2023-02-11T04:15:13.517Z,87.28
2023-02-11T04:16:13.578Z,87.28
2023-02-11T04:17:13.501Z,87.70
2023-02-11T04:18:13.483Z,87.90
2023-02-11T04:19:13.467Z,87.49
2023-02-11T04:20:13.464Z,87.49
2023-02-11T04:21:13.450Z,87.38
2023-02-11T04:22:13.437Z,87.80
2023-02-11T04:23:13.423Z,87.28
2023-02-11T04:24:13.413Z,87.70
2023-02-11T04:25:13.399Z,88.21
2023-02-11T04:26:13.388Z,88.21
2023-02-11T04:27:13.372Z,88.32
2023-02-11T04:28:13.388Z,88.28
2023-02-11T04:29:13.347Z,88.07
2023-02-11T04:30:13.355Z,88.28
2023-02-11T04:31:13.405Z,87.70
2023-02-11T04:32:13.371Z,87.59
2023-02-11T04:33:13.303Z,87.38
2023-02-11T04:34:13.289Z,88.59
2023-02-11T04:35:13.281Z,88.63
2023-02-11T04:36:13.266Z,88.84
2023-02-11T04:37:13.252Z,88.84
2023-02-11T04:38:13.247Z,89.25
2023-02-11T04:39:13.223Z,88.84
2023-02-11T04:40:13.219Z,89.04
2023-02-11T04:41:13.206Z,89.46
2023-02-11T04:42:13.196Z,89.25
2023-02-11T04:43:13.180Z,89.25
2023-02-11T04:44:13.175Z,89.46
2023-02-11T04:45:13.156Z,89.67
2023-02-11T04:46:13.205Z,89.67
2023-02-11T04:47:13.135Z,90.08
2023-02-11T04:48:13.117Z,90.19
2023-02-11T04:49:13.108Z,89.87
2023-02-11T04:50:13.095Z,90.19
2023-02-11T04:51:13.116Z,90.08
2023-02-11T04:52:13.074Z,90.66
2023-02-11T04:53:13.060Z,90.45
2023-02-11T04:54:13.043Z,90.81
2023-02-11T04:55:13.046Z,90.66
2023-02-11T04:56:13.022Z,91.18
2023-02-11T04:57:13.014Z,91.02
2023-02-11T04:58:13.006Z,91.33
2023-02-11T04:59:12.988Z,91.43
2023-02-11T05:00:12.978Z,91.53
2023-02-11T05:01:13.038Z,91.43
2023-02-11T05:02:12.952Z,91.91
2023-02-11T05:03:12.933Z,91.85
2023-02-11T05:04:12.965Z,91.91
2023-02-11T05:05:12.932Z,91.80
2023-02-11T05:06:12.904Z,92.11
2023-02-11T05:07:12.888Z,92.11
2023-02-11T05:08:12.873Z,92.53
2023-02-11T05:09:12.869Z,92.57
2023-02-11T05:10:12.853Z,92.22
2023-02-11T05:11:12.844Z,92.43
2023-02-11T05:12:12.825Z,92.94
2023-02-11T05:13:12.815Z,92.84
2023-02-11T05:14:12.822Z,92.84
2023-02-11T05:15:12.795Z,93.25
2023-02-11T05:16:12.804Z,93.46
2023-02-11T05:17:12.770Z,93.35
2023-02-11T05:18:12.758Z,93.50
2023-02-11T05:19:12.738Z,93.35
2023-02-11T05:20:12.729Z,93.81
2023-02-11T05:21:12.723Z,93.77
2023-02-11T05:22:12.705Z,94.02
2023-02-11T05:23:12.699Z,93.98
2023-02-11T05:24:12.685Z,94.23
2023-02-11T05:25:12.671Z,94.18
2023-02-11T05:26:12.660Z,93.56
2023-02-11T05:27:12.652Z,94.12
2023-02-11T05:28:12.659Z,93.35
2023-02-11T05:29:12.636Z,94.02
2023-02-11T05:30:12.622Z,93.04
2023-02-11T05:31:12.657Z,93.46
2023-02-11T05:32:12.595Z,93.66
2023-02-11T05:33:12.575Z,94.18
2023-02-11T05:34:12.565Z,94.08
2023-02-11T05:35:12.552Z,94.08
2023-02-11T05:36:12.551Z,94.39
2023-02-11T05:37:12.553Z,94.39
2023-02-11T05:38:12.522Z,94.70
2023-02-11T05:39:12.517Z,94.70
2023-02-11T05:40:12.499Z,94.60
2023-02-11T05:41:12.478Z,94.70
2023-02-11T05:42:12.471Z,94.35
2023-02-11T05:43:12.457Z,93.83
2023-02-11T05:44:12.440Z,94.70
2023-02-11T05:45:12.426Z,94.70
2023-02-11T05:46:12.476Z,94.70
2023-02-11T05:47:12.404Z,95.01
2023-02-11T05:48:12.404Z,94.91
2023-02-11T05:49:12.381Z,95.32
2023-02-11T05:50:12.380Z,95.32
2023-02-11T05:51:12.358Z,95.22
2023-02-11T05:52:12.353Z,95.32
2023-02-11T05:53:12.338Z,95.43
2023-02-11T05:54:12.324Z,95.53
2023-02-11T05:55:12.312Z,95.43
2023-02-11T05:56:12.296Z,95.43
2023-02-11T05:57:12.280Z,95.32
2023-02-11T05:58:12.278Z,95.22
2023-02-11T05:59:19.430Z,95.22
2023-02-11T06:01:16.247Z,95.12
2023-02-11T06:02:16.232Z,95.32
2023-02-11T06:04:20.688Z,95.53
2023-02-11T06:05:20.663Z,95.53
2023-02-11T06:06:20.643Z,94.81
2023-02-11T06:07:20.646Z,95.64
2023-02-11T06:08:20.622Z,95.64
2023-02-11T06:09:20.608Z,95.43
2023-02-11T06:10:20.600Z,95.43
2023-02-11T06:11:20.584Z,95.74
2023-02-11T06:12:20.582Z,95.43
2023-02-11T06:13:20.561Z,95.95
2023-02-11T06:14:20.545Z,95.84
2023-02-11T06:15:20.535Z,96.15
2023-02-11T06:16:20.613Z,96.11
2023-02-11T06:17:20.516Z,96.05
2023-02-11T06:18:20.502Z,96.36
2023-02-11T06:19:20.489Z,96.01
2023-02-11T06:20:20.501Z,96.57
2023-02-11T06:21:20.465Z,96.47
2023-02-11T06:22:20.456Z,96.47
2023-02-11T06:23:20.440Z,96.67
2023-02-11T06:24:38.319Z,96.31
2023-02-11T06:25:20.424Z,96.31
2023-02-11T06:26:20.417Z,97.04
2023-02-11T06:27:20.394Z,97.04
2023-02-11T06:28:20.519Z,96.94
2023-02-11T06:29:20.489Z,97.14
2023-02-11T06:30:20.367Z,96.94
2023-02-11T06:31:20.468Z,97.77
2023-02-11T06:32:39.562Z,97.25
2023-02-11T06:33:20.318Z,96.73
2023-02-11T06:34:20.307Z,97.14
2023-02-11T06:35:20.300Z,97.14
2023-02-11T06:36:20.280Z,97.25
2023-02-11T06:37:20.276Z,98.08
2023-02-11T06:38:20.258Z,97.87
2023-02-11T06:39:20.248Z,97.97
2023-02-11T06:40:20.238Z,97.87
2023-02-11T06:41:20.234Z,97.87
2023-02-11T06:42:20.234Z,98.08
2023-02-11T06:43:20.205Z,97.87
2023-02-11T06:44:20.192Z,97.87
2023-02-11T06:45:20.183Z,98.39
2023-02-11T06:46:20.200Z,98.39
2023-02-11T06:47:20.163Z,98.60
2023-02-11T06:48:20.146Z,98.39
2023-02-11T06:49:20.132Z,98.39
2023-02-11T06:50:20.126Z,98.49
2023-02-11T06:51:20.109Z,98.44
2023-02-11T06:52:20.096Z,98.44
2023-02-11T06:53:20.082Z,98.28
2023-02-11T06:54:20.067Z,98.34
2023-02-11T06:55:20.059Z,98.34
2023-02-11T06:56:20.142Z,98.24
2023-02-11T06:57:20.042Z,98.24
2023-02-11T06:58:20.023Z,98.03
2023-02-11T06:59:20.010Z,98.34
2023-02-11T07:00:19.998Z,98.24
2023-02-11T07:01:20.087Z,98.34
2023-02-11T07:02:21.135Z,98.75
2023-02-11T07:03:20.001Z,98.24
2023-02-11T07:04:19.988Z,98.13
2023-02-11T07:05:19.936Z,98.24
2023-02-11T07:06:19.925Z,97.78
2023-02-11T07:07:19.913Z,98.24
2023-02-11T07:08:19.903Z,98.19
2023-02-11T07:09:19.897Z,98.30
2023-02-11T07:10:19.877Z,98.19
2023-02-11T07:11:19.868Z,98.34
2023-02-11T07:12:19.856Z,98.24
2023-02-11T07:13:19.841Z,98.50
2023-02-11T07:14:19.833Z,98.40
2023-02-11T07:15:19.819Z,98.09
2023-02-11T07:16:19.846Z,98.30
2023-02-11T07:17:19.797Z,98.19
2023-02-11T07:18:19.792Z,98.30
2023-02-11T07:19:20.061Z,98.50
2023-02-11T07:20:19.766Z,98.30
2023-02-11T07:21:19.748Z,98.09
2023-02-11T07:22:19.739Z,98.40
2023-02-11T07:23:19.724Z,98.35
2023-02-11T07:24:19.730Z,98.15
2023-02-11T07:25:19.702Z,98.09
2023-02-11T07:26:19.690Z,98.25
2023-02-11T07:27:19.676Z,98.25
2023-02-11T07:28:19.725Z,98.35
2023-02-11T07:29:19.656Z,98.05
2023-02-11T07:30:19.643Z,97.63
2023-02-11T07:31:19.748Z,97.74
2023-02-11T07:32:19.684Z,98.25
2023-02-11T07:33:19.607Z,98.00
2023-02-11T07:34:19.682Z,97.84
2023-02-11T07:35:19.583Z,97.74
2023-02-11T07:36:19.611Z,97.53
2023-02-11T07:37:19.563Z,97.79
2023-02-11T07:38:19.549Z,97.79
2023-02-11T07:39:19.535Z,97.59
2023-02-11T07:40:19.525Z,98.00
2023-02-11T07:41:19.522Z,97.59
2023-02-11T07:42:19.503Z,97.79
2023-02-11T07:43:19.488Z,97.38
2023-02-11T07:44:19.478Z,97.49
2023-02-11T07:45:19.478Z,97.07
2023-02-11T07:46:19.590Z,96.86
2023-02-11T07:47:19.443Z,97.38
2023-02-11T07:48:19.438Z,97.38
2023-02-11T07:49:19.423Z,97.38
2023-02-11T07:50:19.413Z,97.38
2023-02-11T07:51:19.404Z,97.38
2023-02-11T07:52:19.386Z,97.13
2023-02-11T07:53:19.375Z,96.97
2023-02-11T07:54:19.363Z,96.97
2023-02-11T07:55:19.351Z,97.07
2023-02-11T07:56:19.341Z,97.07
2023-02-11T07:57:19.338Z,97.17
2023-02-11T07:58:19.318Z,96.97
2023-02-11T07:59:19.324Z,97.28
2023-02-11T08:00:21.130Z,97.17
2023-02-11T08:01:19.338Z,97.07
2023-02-11T08:02:19.307Z,97.07
2023-02-11T08:03:19.263Z,96.92
2023-02-11T08:04:19.250Z,97.17
2023-02-11T08:05:19.242Z,96.92
2023-02-11T08:06:19.223Z,96.92
2023-02-11T08:07:19.227Z,97.44
2023-02-11T08:08:19.202Z,97.33
2023-02-11T08:09:19.192Z,97.13
2023-02-11T08:10:19.190Z,97.33
2023-02-11T08:11:19.163Z,97.02
2023-02-11T08:12:19.172Z,97.13
2023-02-11T08:13:19.154Z,97.02
2023-02-11T08:14:19.134Z,97.13
2023-02-11T08:15:19.181Z,97.39
2023-02-11T08:16:19.118Z,97.44
2023-02-11T08:17:19.101Z,97.44
2023-02-11T08:18:19.109Z,97.39
2023-02-11T08:19:19.079Z,97.50
2023-02-11T08:20:19.063Z,97.50
2023-02-11T08:21:19.060Z,97.08
2023-02-11T08:22:19.040Z,97.50
2023-02-11T08:23:19.024Z,97.75
2023-02-11T08:24:19.014Z,97.71
2023-02-11T08:25:19.005Z,97.39
2023-02-11T08:26:18.999Z,97.44
2023-02-11T08:27:18.983Z,97.64
2023-02-11T08:28:19.034Z,97.85
2023-02-11T08:29:18.958Z,97.71
2023-02-11T08:30:18.948Z,97.50
2023-02-11T08:31:19.112Z,98.22
2023-02-11T08:32:18.957Z,98.22
2023-02-11T08:33:18.915Z,98.11
2023-02-11T08:34:18.910Z,98.16
2023-02-11T08:35:18.892Z,98.37
2023-02-11T08:36:18.883Z,98.01
2023-02-11T08:37:18.870Z,97.96
2023-02-11T08:38:18.860Z,98.11
2023-02-11T08:39:20.468Z,98.01
2023-02-11T08:40:18.831Z,98.11
2023-02-11T08:41:18.835Z,98.22
2023-02-11T08:42:18.814Z,98.01
2023-02-11T08:43:18.803Z,98.43
2023-02-11T08:44:18.795Z,98.11
2023-02-11T08:45:18.776Z,98.32
2023-02-11T08:46:18.881Z,98.11
2023-02-11T08:47:18.821Z,98.11
2023-02-11T08:48:18.744Z,98.27
2023-02-11T08:49:18.740Z,97.91
2023-02-11T08:50:18.720Z,98.01
2023-02-11T08:51:18.720Z,97.96
2023-02-11T08:52:18.700Z,97.71
2023-02-11T08:53:18.691Z,97.60
2023-02-11T08:54:18.675Z,97.96
2023-02-11T08:55:18.664Z,97.60
2023-02-11T08:56:18.656Z,98.01
2023-02-11T08:57:19.603Z,97.71
2023-02-11T08:58:19.276Z,97.60
2023-02-11T08:59:18.619Z,97.81
2023-02-11T09:00:18.621Z,97.60
2023-02-11T09:01:20.107Z,97.60
2023-02-11T09:02:18.626Z,97.71
2023-02-11T09:03:18.579Z,97.71
2023-02-11T09:04:18.577Z,97.50
2023-02-11T09:05:18.552Z,97.75
2023-02-11T09:06:18.570Z,97.50
2023-02-11T09:07:18.530Z,97.60
2023-02-11T09:08:18.623Z,97.54
2023-02-11T09:09:18.514Z,97.50
2023-02-11T09:10:18.504Z,97.91
2023-02-11T09:11:18.484Z,97.71
2023-02-11T09:12:18.477Z,97.33
2023-02-11T09:13:18.472Z,98.88
2023-02-11T09:14:18.460Z,97.81
2023-02-11T09:15:18.440Z,97.81
2023-02-11T09:16:18.493Z,97.91
2023-02-11T09:17:18.432Z,97.71
2023-02-11T09:18:18.415Z,97.64
2023-02-11T09:19:18.400Z,97.91
2023-02-11T09:20:18.385Z,97.81
2023-02-11T09:21:18.381Z,97.39
2023-02-11T09:22:18.370Z,97.60
2023-02-11T09:23:18.687Z,97.60
2023-02-11T09:24:18.342Z,97.60
2023-02-11T09:25:18.328Z,97.29
2023-02-11T09:26:18.319Z,97.91
2023-02-11T09:27:18.309Z,97.60
2023-02-11T09:28:18.357Z,97.81
2023-02-11T09:29:18.299Z,97.29
2023-02-11T09:30:18.275Z,97.39
2023-02-11T09:31:18.412Z,97.39
2023-02-11T09:32:18.392Z,97.50
2023-02-11T09:33:18.240Z,97.39
2023-02-11T09:34:18.234Z,97.81
2023-02-11T09:35:18.216Z,97.50
2023-02-11T09:36:18.210Z,98.01
2023-02-11T09:37:18.204Z,97.34
2023-02-11T09:38:18.204Z,97.50
2023-02-11T09:39:18.294Z,97.50
2023-02-11T09:40:18.162Z,97.66
2023-02-11T09:41:18.152Z,97.55
2023-02-11T09:42:18.146Z,97.55
2023-02-11T09:43:18.132Z,97.60
2023-02-11T09:44:18.119Z,97.55
2023-02-11T09:45:18.133Z,97.81
2023-02-11T09:46:18.189Z,97.45
2023-02-11T09:47:18.089Z,97.25
2023-02-11T09:48:18.077Z,97.86
2023-02-11T09:49:18.064Z,97.97
2023-02-11T09:50:18.059Z,97.34
2023-02-11T09:51:18.041Z,97.76
2023-02-11T09:52:18.119Z,97.66
2023-02-11T09:53:18.029Z,97.66
2023-02-11T09:54:18.005Z,97.55
2023-02-11T09:55:18.032Z,97.51
2023-02-11T09:56:18.318Z,97.45
2023-02-11T09:57:28.232Z,97.45
2023-02-11T09:58:17.981Z,97.45
2023-02-11T09:59:17.952Z,97.30
2023-02-11T10:00:17.944Z,97.55
2023-02-11T10:01:20.924Z,97.86
2023-02-11T10:02:17.923Z,98.07
2023-02-11T10:03:17.909Z,98.18
2023-02-11T10:04:17.954Z,98.18
2023-02-11T10:05:17.888Z,97.97
2023-02-11T10:06:17.883Z,98.18
2023-02-11T10:07:17.870Z,97.92
2023-02-11T10:08:17.888Z,98.33
2023-02-11T10:09:17.846Z,98.28
2023-02-11T10:10:17.835Z,98.54
2023-02-11T10:11:30.931Z,99.10
2023-02-11T10:12:17.821Z,98.79
2023-02-11T10:13:17.803Z,98.75
2023-02-11T10:14:17.789Z,98.90
2023-02-11T10:15:17.784Z,99.00
2023-02-11T10:16:17.804Z,99.37
2023-02-11T10:17:17.761Z,99.37
2023-02-11T10:18:17.888Z,99.31
2023-02-11T10:19:17.739Z,99.26
2023-02-11T10:20:17.748Z,99.57
2023-02-11T10:21:17.717Z,99.47
2023-02-11T10:22:17.708Z,99.78
2023-02-11T10:23:17.697Z,99.88
2023-02-11T10:24:17.705Z,99.99
2023-02-11T10:25:17.701Z,99.72
2023-02-11T10:26:17.661Z,99.88
2023-02-11T10:27:17.648Z,99.88
2023-02-11T10:28:17.685Z,99.99
2023-02-11T10:29:17.627Z,99.99
2023-02-11T10:30:17.616Z,99.99
2023-02-11T10:31:17.768Z,99.99
2023-02-11T10:32:17.595Z,99.99
2023-02-11T10:33:17.583Z,99.99
2023-02-11T10:34:17.574Z,99.99
2023-02-11T10:35:17.596Z,99.99
2023-02-11T10:36:17.582Z,99.99
2023-02-11T10:37:17.539Z,99.99
2023-02-11T10:38:17.530Z,99.99
2023-02-11T10:39:17.522Z,99.99
2023-02-11T10:40:17.510Z,99.99
2023-02-11T10:41:17.500Z,99.99
2023-02-11T10:42:17.484Z,99.99
2023-02-11T10:43:17.480Z,99.99
2023-02-11T10:44:17.488Z,99.99
2023-02-11T10:45:17.457Z,99.99
2023-02-11T10:46:17.536Z,99.99
2023-02-11T10:47:17.429Z,99.99
2023-02-11T10:48:17.420Z,99.99
2023-02-11T10:49:17.408Z,99.99
2023-02-11T10:50:17.414Z,99.99
2023-02-11T10:51:17.404Z,99.99
2023-02-11T10:52:17.648Z,99.99
2023-02-11T10:53:17.374Z,99.99
2023-02-11T10:54:17.358Z,99.99
2023-02-11T10:55:17.341Z,99.99
2023-02-11T10:56:17.332Z,99.99
2023-02-11T10:57:17.326Z,99.99
2023-02-11T10:58:17.315Z,99.99
2023-02-11T10:59:19.730Z,99.99
2023-02-11T11:00:17.318Z,99.99
2023-02-11T11:01:24.368Z,99.99
2023-02-11T11:02:17.479Z,99.99
2023-02-11T11:03:17.258Z,99.99
2023-02-11T11:04:17.822Z,99.99
2023-02-11T11:05:17.338Z,99.99
2023-02-11T11:06:17.225Z,99.99
2023-02-11T11:07:17.215Z,99.99
2023-02-11T11:08:17.202Z,99.99
2023-02-11T11:09:17.203Z,99.99
2023-02-11T11:10:17.231Z,99.99
2023-02-11T11:11:17.189Z,99.99
2023-02-11T11:12:17.161Z,99.99
2023-02-11T11:13:17.147Z,99.99
2023-02-11T11:14:17.139Z,99.99
2023-02-11T11:15:17.128Z,99.99
2023-02-11T11:16:17.202Z,99.99
2023-02-11T11:17:17.104Z,99.99
2023-02-11T11:18:23.656Z,99.99
2023-02-11T11:19:17.092Z,99.99
2023-02-11T11:20:17.084Z,99.99
2023-02-11T11:21:17.064Z,99.99
2023-02-11T11:22:17.053Z,99.99
2023-02-11T11:23:17.039Z,99.99
2023-02-11T11:24:17.029Z,99.99
2023-02-11T11:25:17.018Z,99.99
2023-02-11T11:26:17.111Z,99.99
2023-02-11T11:27:16.996Z,99.99
2023-02-11T11:28:17.022Z,99.99
2023-02-11T11:29:16.972Z,99.99
2023-02-11T11:30:16.991Z,99.99
2023-02-11T11:31:17.046Z,99.99
2023-02-11T11:32:19.478Z,99.99
2023-02-11T11:33:16.934Z,99.99
2023-02-11T11:34:16.918Z,99.99
2023-02-11T11:35:16.911Z,99.99
2023-02-11T11:36:16.912Z,99.99
2023-02-11T11:37:16.897Z,99.99
2023-02-11T11:38:16.875Z,99.99
2023-02-11T11:39:16.864Z,99.99
2023-02-11T11:40:16.908Z,99.99
2023-02-11T11:41:16.842Z,99.99
2023-02-11T11:42:16.827Z,99.99
2023-02-11T11:43:16.820Z,99.99
2023-02-11T11:44:16.810Z,99.99
2023-02-11T11:45:16.800Z,99.99
2023-02-11T11:46:16.832Z,99.99
2023-02-11T11:47:16.780Z,99.99
2023-02-11T11:48:16.758Z,99.99
2023-02-11T11:49:16.751Z,99.99
2023-02-11T11:50:17.718Z,99.99
2023-02-11T11:51:16.741Z,99.99
2023-02-11T11:52:16.718Z,99.99
2023-02-11T11:53:16.711Z,99.99
2023-02-11T11:54:16.709Z,99.99
2023-02-11T11:55:16.688Z,99.99
2023-02-11T11:56:16.683Z,99.99
2023-02-11T11:57:16.688Z,99.99
2023-02-11T11:58:16.663Z,99.99
2023-02-11T11:59:16.638Z,99.99
2023-02-11T12:00:16.674Z,99.99
2023-02-11T12:01:16.625Z,99.99
2023-02-11T12:02:16.667Z,99.99
2023-02-11T12:03:16.668Z,99.99
2023-02-11T12:04:16.589Z,99.99
2023-02-11T12:05:16.579Z,99.99
2023-02-11T12:06:16.583Z,99.99
2023-02-11T12:07:16.570Z,99.99
2023-02-11T12:08:16.542Z,99.99
2023-02-11T12:09:16.537Z,99.99
2023-02-11T12:10:16.523Z,99.99
2023-02-11T12:11:16.529Z,99.99
2023-02-11T12:12:16.523Z,99.99
2023-02-11T12:13:16.493Z,99.99
2023-02-11T12:14:17.789Z,99.99
2023-02-11T12:15:16.468Z,99.99
2023-02-11T12:16:16.513Z,99.99
2023-02-11T12:17:16.451Z,99.99
2023-02-11T12:18:16.461Z,99.99
2023-02-11T12:19:16.430Z,99.99
2023-02-11T12:20:16.414Z,99.99
2023-02-11T12:21:16.409Z,99.99
2023-02-11T12:22:16.394Z,99.99
2023-02-11T12:23:16.383Z,99.99
2023-02-11T12:24:17.473Z,99.99
2023-02-11T12:25:16.365Z,99.99
2023-02-11T12:26:16.410Z,99.99
2023-02-11T12:27:16.340Z,99.99
2023-02-11T12:28:16.395Z,99.99
2023-02-11T12:29:16.317Z,99.99
2023-02-11T12:30:16.308Z,99.99
2023-02-11T12:31:16.409Z,99.99
2023-02-11T12:32:16.316Z,99.99
2023-02-11T12:33:16.288Z,99.99
2023-02-11T12:34:16.267Z,99.99
2023-02-11T12:35:16.276Z,99.99
2023-02-11T12:36:16.247Z,99.99
2023-02-11T12:37:16.251Z,99.99
2023-02-11T12:38:16.224Z,99.99
2023-02-11T12:39:16.240Z,99.99
2023-02-11T12:40:16.203Z,99.99
2023-02-11T12:41:16.225Z,99.99
2023-02-11T12:42:16.185Z,99.99
2023-02-11T12:43:16.176Z,99.99
2023-02-11T12:44:16.168Z,99.99
2023-02-11T12:45:16.149Z,99.99
2023-02-11T12:46:16.225Z,99.99
2023-02-11T12:47:16.130Z,99.99
2023-02-11T12:48:16.121Z,99.99
2023-02-11T12:49:16.111Z,99.99
2023-02-11T12:50:16.100Z,99.99
2023-02-11T12:51:16.088Z,99.99
2023-02-11T12:52:16.121Z,99.99
2023-02-11T12:53:16.068Z,99.99
2023-02-11T12:54:16.062Z,99.99
2023-02-11T12:55:16.054Z,99.99
2023-02-11T12:56:16.053Z,99.99
2023-02-11T12:57:16.026Z,99.99
2023-02-11T12:58:16.015Z,99.99
2023-02-11T12:59:16.019Z,99.99
2023-02-11T13:00:15.997Z,99.99
2023-02-11T13:01:16.045Z,99.99
2023-02-11T13:02:16.038Z,99.99
2023-02-11T13:03:15.963Z,99.99
2023-02-11T13:04:15.954Z,99.99
2023-02-11T13:05:15.943Z,99.99
2023-02-11T13:06:15.941Z,99.99
2023-02-11T13:07:15.922Z,99.99